sensor_id;sensor_type;location;lat;lon;timestamp;pressure;altitude;pressure_sealevel;temperature;humidity
43770;BME280;6597;52.218;9.882;2023-12-20T00:00:21;100341.84;;;6.29;100.00
43770;BME280;6597;52.218;9.882;2023-12-20T00:02:47;100338.38;;;6.29;100.00
43770;BME280;6597;52.218;9.882;2023-12-20T00:05:14;100333.13;;;6.30;100.00
43770;BME280;6597;52.218;9.882;2023-12-20T00:07:40;100333.94;;;6.32;100.00
43770;BME280;6597;52.218;9.882;2023-12-20T00:10:07;100346.81;;;6.38;100.00
43770;BME280;6597;52.218;9.882;2023-12-20T00:12:34;100343.31;;;6.39;100.00
43770;BME280;6597;52.218;9.882;2023-12-20T00:15:02;100344.19;;;6.40;100.00
43770;BME280;6597;52.218;9.882;2023-12-20T00:17:29;100341.53;;;6.41;100.00
43770;BME280;6597;52.218;9.882;2023-12-20T00:19:55;100346.75;;;6.41;100.00
43770;BME280;6597;52.218;9.882;2023-12-20T00:22:22;100353.72;;;6.41;100.00
43770;BME280;6597;52.218;9.882;2023-12-20T00:24:48;100352.78;;;6.43;100.00
43770;BME280;6597;52.218;9.882;2023-12-20T00:27:15;100350.25;;;6.40;100.00
43770;BME280;6597;52.218;9.882;2023-12-20T00:29:41;100348.56;;;6.38;100.00
43770;BME280;6597;52.218;9.882;2023-12-20T00:32:14;100350.28;;;6.39;100.00
43770;BME280;6597;52.218;9.882;2023-12-20T00:34:40;100356.31;;;6.41;100.00
43770;BME280;6597;52.218;9.882;2023-12-20T00:37:07;100358.97;;;6.39;100.00
43770;BME280;6597;52.218;9.882;2023-12-20T00:39:34;100354.72;;;6.35;100.00
43770;BME280;6597;52.218;9.882;2023-12-20T00:42:00;100361.75;;;6.32;100.00
43770;BME280;6597;52.218;9.882;2023-12-20T00:44:27;100368.81;;;6.28;100.00
43770;BME280;6597;52.218;9.882;2023-12-20T00:46:53;100369.69;;;6.27;100.00
43770;BME280;6597;52.218;9.882;2023-12-20T00:49:21;100378.56;;;6.20;100.00
43770;BME280;6597;52.218;9.882;2023-12-20T00:51:48;100377.75;;;6.18;100.00
43770;BME280;6597;52.218;9.882;2023-12-20T00:54:15;100375.28;;;6.10;100.00
43770;BME280;6597;52.218;9.882;2023-12-20T00:56:42;100381.53;;;6.03;100.00
43770;BME280;6597;52.218;9.882;2023-12-20T00:59:09;100379.09;;;5.96;100.00
43770;BME280;6597;52.218;9.882;2023-12-20T01:01:36;100373.22;;;5.84;100.00
43770;BME280;6597;52.218;9.882;2023-12-20T01:04:02;100378.47;;;5.83;100.00
43770;BME280;6597;52.218;9.882;2023-12-20T01:06:30;100379.44;;;5.79;100.00
43770;BME280;6597;52.218;9.882;2023-12-20T01:08:57;100362.13;;;5.76;100.00
43770;BME280;6597;52.218;9.882;2023-12-20T01:11:23;100362.25;;;5.70;100.00
43770;BME280;6597;52.218;9.882;2023-12-20T01:13:50;100365.81;;;5.66;100.00
43770;BME280;6597;52.218;9.882;2023-12-20T01:16:16;100367.59;;;5.64;100.00
43770;BME280;6597;52.218;9.882;2023-12-20T01:18:43;100368.56;;;5.60;100.00
43770;BME280;6597;52.218;9.882;2023-12-20T01:21:09;100363.41;;;5.57;100.00
43770;BME280;6597;52.218;9.882;2023-12-20T01:23:37;100368.69;;;5.54;100.00
43770;BME280;6597;52.218;9.882;2023-12-20T01:26:04;100360.94;;;5.49;100.00
43770;BME280;6597;52.218;9.882;2023-12-20T01:28:30;100366.25;;;5.45;100.00
43770;BME280;6597;52.218;9.882;2023-12-20T01:30:57;100374.97;;;5.42;100.00
43770;BME280;6597;52.218;9.882;2023-12-20T01:33:24;100375.94;;;5.38;100.00
43770;BME280;6597;52.218;9.882;2023-12-20T01:35:50;100376.91;;;5.34;100.00
43770;BME280;6597;52.218;9.882;2023-12-20T01:38:17;100374.38;;;5.29;100.00
43770;BME280;6597;52.218;9.882;2023-12-20T01:40:45;100370.97;;;5.27;100.00
43770;BME280;6597;52.218;9.882;2023-12-20T01:43:13;100364.09;;;5.23;100.00
43770;BME280;6597;52.218;9.882;2023-12-20T01:45:40;100379.78;;;5.19;100.00
43770;BME280;6597;52.218;9.882;2023-12-20T01:48:07;100375.44;;;5.21;100.00
43770;BME280;6597;52.218;9.882;2023-12-20T01:50:35;100378.88;;;5.21;100.00
43770;BME280;6597;52.218;9.882;2023-12-20T01:53:03;100388.44;;;5.19;100.00
43770;BME280;6597;52.218;9.882;2023-12-20T01:55:31;100385.84;;;5.21;100.00
43770;BME280;6597;52.218;9.882;2023-12-20T01:58:00;100390.13;;;5.23;100.00
43770;BME280;6597;52.218;9.882;2023-12-20T02:00:28;100376.19;;;5.26;100.00
43770;BME280;6597;52.218;9.882;2023-12-20T02:02:55;100381.38;;;5.27;100.00
43770;BME280;6597;52.218;9.882;2023-12-20T02:05:28;100381.38;;;5.27;100.00
43770;BME280;6597;52.218;9.882;2023-12-20T02:07:54;100389.06;;;5.32;100.00
43770;BME280;6597;52.218;9.882;2023-12-20T02:10:21;100389.91;;;5.34;100.00
43770;BME280;6597;52.218;9.882;2023-12-20T02:12:48;100390.78;;;5.33;100.00
43770;BME280;6597;52.218;9.882;2023-12-20T02:15:16;100396.94;;;5.29;100.00
43770;BME280;6597;52.218;9.882;2023-12-20T02:17:43;100395.16;;;5.32;100.00
43770;BME280;6597;52.218;9.882;2023-12-20T02:20:10;100394.31;;;5.30;100.00
43770;BME280;6597;52.218;9.882;2023-12-20T02:22:38;100392.50;;;5.34;100.00
43770;BME280;6597;52.218;9.882;2023-12-20T02:25:05;100396.78;;;5.37;100.00
43770;BME280;6597;52.218;9.882;2023-12-20T02:27:32;100391.66;;;5.34;100.00
43770;BME280;6597;52.218;9.882;2023-12-20T02:29:58;100395.28;;;5.26;100.00
43770;BME280;6597;52.218;9.882;2023-12-20T02:32:25;100380.66;;;5.18;100.00
43770;BME280;6597;52.218;9.882;2023-12-20T02:34:52;100376.50;;;5.09;100.00
43770;BME280;6597;52.218;9.882;2023-12-20T02:37:18;100364.50;;;5.02;100.00
43770;BME280;6597;52.218;9.882;2023-12-20T02:39:46;100361.19;;;4.94;100.00
43770;BME280;6597;52.218;9.882;2023-12-20T02:42:13;100356.09;;;4.88;100.00
43770;BME280;6597;52.218;9.882;2023-12-20T02:44:40;100359.69;;;4.81;100.00
43770;BME280;6597;52.218;9.882;2023-12-20T02:47:06;100369.38;;;4.73;100.00
43770;BME280;6597;52.218;9.882;2023-12-20T02:49:33;100366.94;;;4.63;100.00
43770;BME280;6597;52.218;9.882;2023-12-20T02:51:59;100361.75;;;4.62;100.00
43770;BME280;6597;52.218;9.882;2023-12-20T02:54:26;100362.75;;;4.53;100.00
43770;BME280;6597;52.218;9.882;2023-12-20T02:56:54;100351.53;;;4.50;100.00
43770;BME280;6597;52.218;9.882;2023-12-20T02:59:20;100357.66;;;4.47;100.00
43770;BME280;6597;52.218;9.882;2023-12-20T03:01:47;100357.63;;;4.49;100.00
43770;BME280;6597;52.218;9.882;2023-12-20T03:04:13;100352.44;;;4.49;100.00
43770;BME280;6597;52.218;9.882;2023-12-20T03:06:40;100359.34;;;4.50;100.00
43770;BME280;6597;52.218;9.882;2023-12-20T03:09:06;100349.72;;;4.55;100.00
43770;BME280;6597;52.218;9.882;2023-12-20T03:11:33;100344.53;;;4.55;100.00
43770;BME280;6597;52.218;9.882;2023-12-20T03:14:01;100346.28;;;4.56;100.00
43770;BME280;6597;52.218;9.882;2023-12-20T03:16:27;100350.59;;;4.57;100.00
43770;BME280;6597;52.218;9.882;2023-12-20T03:18:54;100352.31;;;4.55;100.00
43770;BME280;6597;52.218;9.882;2023-12-20T03:21:20;100340.22;;;4.52;100.00
43770;BME280;6597;52.218;9.882;2023-12-20T03:23:47;100343.78;;;4.48;100.00
43770;BME280;6597;52.218;9.882;2023-12-20T03:26:13;100340.41;;;4.43;100.00
43770;BME280;6597;52.218;9.882;2023-12-20T03:28:40;100337.84;;;4.40;100.00
43770;BME280;6597;52.218;9.882;2023-12-20T03:31:09;100335.38;;;4.34;100.00
43770;BME280;6597;52.218;9.882;2023-12-20T03:33:35;100324.16;;;4.30;100.00
43770;BME280;6597;52.218;9.882;2023-12-20T03:36:02;100320.72;;;4.30;100.00
43770;BME280;6597;52.218;9.882;2023-12-20T03:38:28;100316.41;;;4.27;100.00
43770;BME280;6597;52.218;9.882;2023-12-20T03:40:55;100301.69;;;4.28;100.00
43770;BME280;6597;52.218;9.882;2023-12-20T03:43:21;100301.69;;;4.28;100.00
43770;BME280;6597;52.218;9.882;2023-12-20T03:45:48;100305.16;;;4.27;100.00
43770;BME280;6597;52.218;9.882;2023-12-20T03:48:16;100302.53;;;4.28;100.00
43770;BME280;6597;52.218;9.882;2023-12-20T03:50:42;100305.16;;;4.27;100.00
43770;BME280;6597;52.218;9.882;2023-12-20T03:53:09;100306.88;;;4.28;100.00
43770;BME280;6597;52.218;9.882;2023-12-20T03:55:35;100313.72;;;4.33;100.00
43770;BME280;6597;52.218;9.882;2023-12-20T03:58:02;100304.16;;;4.35;100.00
43770;BME280;6597;52.218;9.882;2023-12-20T04:00:29;100313.69;;;4.35;100.00
43770;BME280;6597;52.218;9.882;2023-12-20T04:02:55;100299.00;;;4.32;100.00
43770;BME280;6597;52.218;9.882;2023-12-20T04:05:23;100302.44;;;4.34;100.00
43770;BME280;6597;52.218;9.882;2023-12-20T04:07:49;100305.84;;;4.38;100.00
43770;BME280;6597;52.218;9.882;2023-12-20T04:10:16;100305.72;;;4.44;100.00
43770;BME280;6597;52.218;9.882;2023-12-20T04:12:43;100306.44;;;4.52;100.00
43770;BME280;6597;52.218;9.882;2023-12-20T04:15:09;100295.09;;;4.59;100.00
43770;BME280;6597;52.218;9.882;2023-12-20T04:17:37;100293.28;;;4.63;100.00
43770;BME280;6597;52.218;9.882;2023-12-20T04:20:05;100301.91;;;4.65;100.00
43770;BME280;6597;52.218;9.882;2023-12-20T04:22:33;100298.41;;;4.66;100.00
43770;BME280;6597;52.218;9.882;2023-12-20T04:24:59;100294.88;;;4.70;100.00
43770;BME280;6597;52.218;9.882;2023-12-20T04:27:26;100297.44;;;4.72;100.00
43770;BME280;6597;52.218;9.882;2023-12-20T04:29:52;100297.38;;;4.75;100.00
43770;BME280;6597;52.218;9.882;2023-12-20T04:32:19;100299.88;;;4.81;100.00
43770;BME280;6597;52.218;9.882;2023-12-20T04:34:45;100303.31;;;4.81;100.00
43770;BME280;6597;52.218;9.882;2023-12-20T04:37:12;100301.50;;;4.86;100.00
43770;BME280;6597;52.218;9.882;2023-12-20T04:39:40;100304.91;;;4.90;100.00
43770;BME280;6597;52.218;9.882;2023-12-20T04:42:07;100296.13;;;4.95;100.00
43770;BME280;6597;52.218;9.882;2023-12-20T04:44:33;100296.06;;;4.98;100.00
43770;BME280;6597;52.218;9.882;2023-12-20T04:47:00;100289.94;;;5.01;100.00
43770;BME280;6597;52.218;9.882;2023-12-20T04:49:26;100289.84;;;5.06;100.00
43770;BME280;6597;52.218;9.882;2023-12-20T04:51:53;100282.88;;;5.08;100.00
43770;BME280;6597;52.218;9.882;2023-12-20T04:54:19;100288.09;;;5.06;100.00
43770;BME280;6597;52.218;9.882;2023-12-20T04:56:47;100279.41;;;5.07;100.00
43770;BME280;6597;52.218;9.882;2023-12-20T04:59:14;100288.97;;;5.07;100.00
43770;BME280;6597;52.218;9.882;2023-12-20T05:01:40;100285.53;;;5.05;100.00
43770;BME280;6597;52.218;9.882;2023-12-20T05:04:07;100288.16;;;5.03;100.00
43770;BME280;6597;52.218;9.882;2023-12-20T05:06:33;100283.81;;;5.04;100.00
43770;BME280;6597;52.218;9.882;2023-12-20T05:09:00;100280.38;;;5.03;100.00
43770;BME280;6597;52.218;9.882;2023-12-20T05:11:26;100282.97;;;5.03;100.00
43770;BME280;6597;52.218;9.882;2023-12-20T05:13:54;100293.38;;;5.03;100.00
43770;BME280;6597;52.218;9.882;2023-12-20T05:16:21;100289.06;;;5.02;100.00
43770;BME280;6597;52.218;9.882;2023-12-20T05:18:48;100281.22;;;5.04;100.00
43770;BME280;6597;52.218;9.882;2023-12-20T05:21:17;100269.03;;;5.06;100.00
43770;BME280;6597;52.218;9.882;2023-12-20T05:23:44;100275.09;;;5.06;100.00
43770;BME280;6597;52.218;9.882;2023-12-20T05:26:10;100282.03;;;5.06;100.00
43770;BME280;6597;52.218;9.882;2023-12-20T05:28:37;100281.19;;;5.05;100.00
43770;BME280;6597;52.218;9.882;2023-12-20T05:31:05;100279.41;;;5.07;100.00
43770;BME280;6597;52.218;9.882;2023-12-20T05:33:32;100279.38;;;5.09;100.00
43770;BME280;6597;52.218;9.882;2023-12-20T05:35:58;100287.09;;;5.13;100.00
43770;BME280;6597;52.218;9.882;2023-12-20T05:38:26;100279.22;;;5.16;100.00
43770;BME280;6597;52.218;9.882;2023-12-20T05:40:52;100268.72;;;5.22;100.00
43770;BME280;6597;52.218;9.882;2023-12-20T05:43:19;100261.72;;;5.24;100.00
43770;BME280;6597;52.218;9.882;2023-12-20T05:45:46;100278.97;;;5.28;100.00
43770;BME280;6597;52.218;9.882;2023-12-20T05:48:14;100265.09;;;5.29;100.00
43770;BME280;6597;52.218;9.882;2023-12-20T05:50:40;100268.47;;;5.33;100.00
43770;BME280;6597;52.218;9.882;2023-12-20T05:53:07;100271.00;;;5.36;100.00
43770;BME280;6597;52.218;9.882;2023-12-20T05:55:33;100273.59;;;5.36;100.00
43770;BME280;6597;52.218;9.882;2023-12-20T05:58:00;100268.53;;;5.30;100.00
43770;BME280;6597;52.218;9.882;2023-12-20T06:00:26;100281.69;;;5.24;100.00
43770;BME280;6597;52.218;9.882;2023-12-20T06:02:53;100268.81;;;5.16;100.00
43770;BME280;6597;52.218;9.882;2023-12-20T06:05:21;100271.47;;;5.13;100.00
43770;BME280;6597;52.218;9.882;2023-12-20T06:07:47;100277.56;;;5.12;100.00
43770;BME280;6597;52.218;9.882;2023-12-20T06:10:16;100280.25;;;5.09;100.00
43770;BME280;6597;52.218;9.882;2023-12-20T06:12:42;100282.84;;;5.09;100.00
43770;BME280;6597;52.218;9.882;2023-12-20T06:15:09;100274.31;;;5.03;100.00
43770;BME280;6597;52.218;9.882;2023-12-20T06:17:36;100275.28;;;4.97;100.00
43770;BME280;6597;52.218;9.882;2023-12-20T06:20:03;100265.06;;;4.86;100.00
43770;BME280;6597;52.218;9.882;2023-12-20T06:22:34;100270.53;;;4.74;100.00
43770;BME280;6597;52.218;9.882;2023-12-20T06:25:01;100275.84;;;4.68;100.00
43770;BME280;6597;52.218;9.882;2023-12-20T06:27:28;100263.84;;;4.61;100.00
43770;BME280;6597;52.218;9.882;2023-12-20T06:29:54;100266.47;;;4.61;100.00
43770;BME280;6597;52.218;9.882;2023-12-20T06:32:21;100275.06;;;4.64;100.00
43770;BME280;6597;52.218;9.882;2023-12-20T06:34:48;100268.94;;;4.67;100.00
43770;BME280;6597;52.218;9.882;2023-12-20T06:37:15;100266.25;;;4.72;100.00
43770;BME280;6597;52.218;9.882;2023-12-20T06:39:43;100266.19;;;4.75;100.00
43770;BME280;6597;52.218;9.882;2023-12-20T06:42:09;100273.91;;;4.78;100.00
43770;BME280;6597;52.218;9.882;2023-12-20T06:44:36;100266.13;;;4.78;100.00
43770;BME280;6597;52.218;9.882;2023-12-20T06:47:03;100263.53;;;4.78;100.00
43770;BME280;6597;52.218;9.882;2023-12-20T06:49:29;100270.56;;;4.73;100.00
43770;BME280;6597;52.218;9.882;2023-12-20T06:51:56;100279.31;;;4.68;100.00
43770;BME280;6597;52.218;9.882;2023-12-20T06:54:22;100265.50;;;4.65;100.00
43770;BME280;6597;52.218;9.882;2023-12-20T06:56:50;100269.00;;;4.64;100.00
43770;BME280;6597;52.218;9.882;2023-12-20T06:59:16;100265.50;;;4.65;100.00
43770;BME280;6597;52.218;9.882;2023-12-20T07:01:47;100258.41;;;4.73;100.00
43770;BME280;6597;52.218;9.882;2023-12-20T07:04:14;100246.25;;;4.75;100.00
43770;BME280;6597;52.218;9.882;2023-12-20T07:06:40;100247.94;;;4.76;100.00
43770;BME280;6597;52.218;9.882;2023-12-20T07:09:07;100252.38;;;4.71;100.00
43770;BME280;6597;52.218;9.882;2023-12-20T07:11:33;100253.31;;;4.68;100.00
43770;BME280;6597;52.218;9.882;2023-12-20T07:14:01;100242.97;;;4.65;100.00
43770;BME280;6597;52.218;9.882;2023-12-20T07:16:28;100249.00;;;4.67;100.00
43770;BME280;6597;52.218;9.882;2023-12-20T07:18:54;100252.34;;;4.73;100.00
43770;BME280;6597;52.218;9.882;2023-12-20T07:21:22;100250.59;;;4.75;100.00
43770;BME280;6597;52.218;9.882;2023-12-20T07:23:48;100254.75;;;4.83;100.00
43770;BME280;6597;52.218;9.882;2023-12-20T07:26:15;100245.13;;;4.87;100.00
43770;BME280;6597;52.218;9.882;2023-12-20T07:28:42;100258.09;;;4.90;100.00
43770;BME280;6597;52.218;9.882;2023-12-20T07:31:09;100250.28;;;4.90;100.00
43770;BME280;6597;52.218;9.882;2023-12-20T07:33:36;100259.88;;;4.88;100.00
43770;BME280;6597;52.218;9.882;2023-12-20T07:36:04;100265.09;;;4.85;100.00
43770;BME280;6597;52.218;9.882;2023-12-20T07:38:31;100253.88;;;4.83;100.00
43770;BME280;6597;52.218;9.882;2023-12-20T07:40:57;100265.16;;;4.82;100.00
43770;BME280;6597;52.218;9.882;2023-12-20T07:43:24;100258.13;;;4.87;100.00
43770;BME280;6597;52.218;9.882;2023-12-20T07:45:51;100262.34;;;4.94;100.00
43770;BME280;6597;52.218;9.882;2023-12-20T07:48:18;100253.53;;;5.01;100.00
43770;BME280;6597;52.218;9.882;2023-12-20T07:50:45;100263.88;;;5.04;100.00
43770;BME280;6597;52.218;9.882;2023-12-20T07:53:11;100255.97;;;5.09;100.00
43770;BME280;6597;52.218;9.882;2023-12-20T07:55:39;100250.03;;;5.02;100.00
43770;BME280;6597;52.218;9.882;2023-12-20T07:58:05;100248.91;;;5.14;100.00
43770;BME280;6597;52.218;9.882;2023-12-20T08:00:32;100248.88;;;5.15;100.00
43770;BME280;6597;52.218;9.882;2023-12-20T08:02:58;100250.59;;;5.16;100.00
43770;BME280;6597;52.218;9.882;2023-12-20T08:05:26;100255.78;;;5.18;100.00
43770;BME280;6597;52.218;9.882;2023-12-20T08:07:52;100258.31;;;5.22;100.00
43770;BME280;6597;52.218;9.882;2023-12-20T08:10:19;100252.22;;;5.23;100.00
43770;BME280;6597;52.218;9.882;2023-12-20T08:12:45;100251.31;;;5.24;100.00
43770;BME280;6597;52.218;9.882;2023-12-20T08:15:12;100234.03;;;5.22;100.00
43770;BME280;6597;52.218;9.882;2023-12-20T08:17:39;100246.19;;;5.21;100.00
43770;BME280;6597;52.218;9.882;2023-12-20T08:20:07;100247.88;;;5.22;100.00
43770;BME280;6597;52.218;9.882;2023-12-20T08:22:35;100266.94;;;5.24;100.00
43770;BME280;6597;52.218;9.882;2023-12-20T08:25:01;100255.59;;;5.27;100.00
43770;BME280;6597;52.218;9.882;2023-12-20T08:27:28;100259.09;;;5.26;100.00
43770;BME280;6597;52.218;9.882;2023-12-20T08:29:56;100255.53;;;5.30;100.00
43770;BME280;6597;52.218;9.882;2023-12-20T08:32:25;100251.97;;;5.34;100.00
43770;BME280;6597;52.218;9.882;2023-12-20T08:34:51;100242.44;;;5.33;100.00
43770;BME280;6597;52.218;9.882;2023-12-20T08:37:18;100252.00;;;5.32;100.00
43770;BME280;6597;52.218;9.882;2023-12-20T08:39:46;100237.31;;;5.30;100.00
43770;BME280;6597;52.218;9.882;2023-12-20T08:42:12;100229.50;;;5.30;100.00
43770;BME280;6597;52.218;9.882;2023-12-20T08:44:39;100232.13;;;5.28;100.00
43770;BME280;6597;52.218;9.882;2023-12-20T08:47:05;100232.13;;;5.28;100.00
43770;BME280;6597;52.218;9.882;2023-12-20T08:49:32;100226.88;;;5.31;100.00
43770;BME280;6597;52.218;9.882;2023-12-20T08:51:59;100218.03;;;5.39;100.00
43770;BME280;6597;52.218;9.882;2023-12-20T08:54:25;100216.09;;;5.47;100.00
43770;BME280;6597;52.218;9.882;2023-12-20T08:56:53;100208.13;;;5.54;100.00
43770;BME280;6597;52.218;9.882;2023-12-20T08:59:20;100204.50;;;5.61;100.00
43770;BME280;6597;52.218;9.882;2023-12-20T09:01:46;100205.22;;;5.67;100.00
43770;BME280;6597;52.218;9.882;2023-12-20T09:04:13;100201.66;;;5.71;100.00
43770;BME280;6597;52.218;9.882;2023-12-20T09:06:40;100212.00;;;5.74;100.00
43770;BME280;6597;52.218;9.882;2023-12-20T09:09:06;100208.63;;;5.70;100.00
43770;BME280;6597;52.218;9.882;2023-12-20T09:11:35;100205.13;;;5.71;100.00
43770;BME280;6597;52.218;9.882;2023-12-20T09:14:03;100207.75;;;5.70;100.00
43770;BME280;6597;52.218;9.882;2023-12-20T09:16:29;100206.94;;;5.68;100.00
43770;BME280;6597;52.218;9.882;2023-12-20T09:18:56;100201.69;;;5.69;100.00
43770;BME280;6597;52.218;9.882;2023-12-20T09:21:23;100194.84;;;5.65;100.00
43770;BME280;6597;52.218;9.882;2023-12-20T09:23:50;100187.94;;;5.64;100.00
43770;BME280;6597;52.218;9.882;2023-12-20T09:26:16;100173.13;;;5.66;100.00
43770;BME280;6597;52.218;9.882;2023-12-20T09:28:43;100178.16;;;5.74;100.00
43770;BME280;6597;52.218;9.882;2023-12-20T09:31:11;100178.91;;;5.77;100.00
43770;BME280;6597;52.218;9.882;2023-12-20T09:33:37;100177.13;;;5.79;100.00
43770;BME280;6597;52.218;9.882;2023-12-20T09:36:05;100185.81;;;5.80;100.00
43770;BME280;6597;52.218;9.882;2023-12-20T09:38:31;100166.72;;;5.79;100.00
43770;BME280;6597;52.218;9.882;2023-12-20T09:40:58;100155.63;;;5.71;100.00
43770;BME280;6597;52.218;9.882;2023-12-20T09:43:26;100151.31;;;5.70;100.00
43770;BME280;6597;52.218;9.882;2023-12-20T09:45:59;100153.84;;;5.73;100.00
43770;BME280;6597;52.218;9.882;2023-12-20T09:48:29;100148.66;;;5.73;100.00
43770;BME280;6597;52.218;9.882;2023-12-20T09:50:56;100147.75;;;5.74;100.00
43770;BME280;6597;52.218;9.882;2023-12-20T09:53:24;100157.88;;;5.86;100.00
43770;BME280;6597;52.218;9.882;2023-12-20T09:55:58;100159.34;;;5.98;100.00
43770;BME280;6597;52.218;9.882;2023-12-20T09:58:26;100156.59;;;6.03;100.00
43770;BME280;6597;52.218;9.882;2023-12-20T10:00:52;100153.84;;;6.09;100.00
43770;BME280;6597;52.218;9.882;2023-12-20T10:03:25;100143.31;;;6.12;100.00
43770;BME280;6597;52.218;9.882;2023-12-20T10:05:54;100141.63;;;6.11;100.00
43770;BME280;6597;52.218;9.882;2023-12-20T10:08:24;100123.47;;;6.08;100.00
43770;BME280;6597;52.218;9.882;2023-12-20T10:10:51;100152.00;;;6.12;100.00
43770;BME280;6597;52.218;9.882;2023-12-20T10:13:18;100135.56;;;6.10;100.00
43770;BME280;6597;52.218;9.882;2023-12-20T10:15:44;100142.66;;;6.05;100.00
43770;BME280;6597;52.218;9.882;2023-12-20T10:18:12;100125.34;;;6.03;100.00
43770;BME280;6597;52.218;9.882;2023-12-20T10:20:40;100133.00;;;6.09;100.00
43770;BME280;6597;52.218;9.882;2023-12-20T10:23:08;100133.16;;;6.03;100.00
43770;BME280;6597;52.218;9.882;2023-12-20T10:25:35;100126.31;;;5.99;100.00
43770;BME280;6597;52.218;9.882;2023-12-20T10:28:09;100122.91;;;5.97;100.00
43770;BME280;6597;52.218;9.882;2023-12-20T10:30:36;100122.09;;;5.95;100.00
43770;BME280;6597;52.218;9.882;2023-12-20T10:33:03;100122.19;;;5.91;100.00
43770;BME280;6597;52.218;9.882;2023-12-20T10:35:31;100116.97;;;5.91;100.00
43770;BME280;6597;52.218;9.882;2023-12-20T10:38:03;100108.91;;;6.01;100.00
43770;BME280;6597;52.218;9.882;2023-12-20T10:40:31;100099.84;;;6.14;100.00
43770;BME280;6597;52.218;9.882;2023-12-20T10:43:02;100109.91;;;6.28;100.00
43770;BME280;6597;52.218;9.882;2023-12-20T10:45:29;100103.44;;;6.41;100.00
43770;BME280;6597;52.218;9.882;2023-12-20T10:47:56;100100.56;;;6.50;100.00
43770;BME280;6597;52.218;9.882;2023-12-20T10:50:24;100111.88;;;6.50;100.00
43770;BME280;6597;52.218;9.882;2023-12-20T10:52:52;100110.22;;;6.46;100.00
43770;BME280;6597;52.218;9.882;2023-12-20T10:55:21;100112.03;;;6.44;100.00
43770;BME280;6597;52.218;9.882;2023-12-20T10:57:49;100103.47;;;6.39;100.00
43770;BME280;6597;52.218;9.882;2023-12-20T11:00:17;100100.75;;;6.44;100.00
43770;BME280;6597;52.218;9.882;2023-12-20T11:02:45;100091.16;;;6.44;100.00
43770;BME280;6597;52.218;9.882;2023-12-20T11:05:19;100088.47;;;6.47;100.00
43770;BME280;6597;52.218;9.882;2023-12-20T11:07:52;100082.44;;;6.45;100.00
43770;BME280;6597;52.218;9.882;2023-12-20T11:10:26;100099.78;;;6.46;100.00
43770;BME280;6597;52.218;9.882;2023-12-20T11:13:01;100086.09;;;6.40;100.00
43770;BME280;6597;52.218;9.882;2023-12-20T11:15:35;100098.41;;;6.35;100.00
43770;BME280;6597;52.218;9.882;2023-12-20T11:18:02;100094.59;;;6.15;100.00
43770;BME280;6597;52.218;9.882;2023-12-20T11:20:36;100107.09;;;6.03;100.00
43770;BME280;6597;52.218;9.882;2023-12-20T11:23:03;100089.16;;;5.92;100.00
43770;BME280;6597;52.218;9.882;2023-12-20T11:25:45;100101.38;;;5.88;100.00
43770;BME280;6597;52.218;9.882;2023-12-20T11:28:13;100092.00;;;5.81;100.00
43770;BME280;6597;52.218;9.882;2023-12-20T11:30:46;100093.81;;;5.78;100.00
43770;BME280;6597;52.218;9.882;2023-12-20T11:33:14;100083.50;;;5.75;100.00
43770;BME280;6597;52.218;9.882;2023-12-20T11:35:41;100080.13;;;5.71;100.00
43770;BME280;6597;52.218;9.882;2023-12-20T11:38:08;100094.13;;;5.67;100.00
43770;BME280;6597;52.218;9.882;2023-12-20T11:40:36;100088.09;;;5.65;100.00
43770;BME280;6597;52.218;9.882;2023-12-20T11:43:03;100090.75;;;5.63;100.00
43770;BME280;6597;52.218;9.882;2023-12-20T11:45:31;100091.63;;;5.62;100.00
43770;BME280;6597;52.218;9.882;2023-12-20T11:48:00;100083.09;;;5.57;100.00
43770;BME280;6597;52.218;9.882;2023-12-20T11:50:28;100084.81;;;5.58;100.00
43770;BME280;6597;52.218;9.882;2023-12-20T11:52:56;100083.94;;;5.58;100.00
43770;BME280;6597;52.218;9.882;2023-12-20T11:55:23;100070.94;;;5.58;100.00
43770;BME280;6597;52.218;9.882;2023-12-20T11:57:50;100070.00;;;5.60;100.00
43770;BME280;6597;52.218;9.882;2023-12-20T12:00:17;100065.63;;;5.61;100.00
43770;BME280;6597;52.218;9.882;2023-12-20T12:02:55;100083.81;;;5.62;100.00
43770;BME280;6597;52.218;9.882;2023-12-20T12:05:21;100109.91;;;5.61;100.00
43770;BME280;6597;52.218;9.882;2023-12-20T12:07:48;100171.56;;;5.59;100.00
43770;BME280;6597;52.218;9.882;2023-12-20T12:10:15;100148.53;;;5.05;100.00
43770;BME280;6597;52.218;9.882;2023-12-20T12:12:41;100124.44;;;4.57;100.00
43770;BME280;6597;52.218;9.882;2023-12-20T12:15:08;100107.69;;;4.28;100.00
43770;BME280;6597;52.218;9.882;2023-12-20T12:17:35;100111.41;;;4.14;100.00
43770;BME280;6597;52.218;9.882;2023-12-20T12:20:05;100120.25;;;4.05;100.00
43770;BME280;6597;52.218;9.882;2023-12-20T12:22:32;100118.63;;;3.99;100.00
43770;BME280;6597;52.218;9.882;2023-12-20T12:24:59;100120.47;;;3.94;100.00
43770;BME280;6597;52.218;9.882;2023-12-20T12:27:27;100115.31;;;3.90;100.00
43770;BME280;6597;52.218;9.882;2023-12-20T12:30:00;100089.69;;;3.73;100.00
43770;BME280;6597;52.218;9.882;2023-12-20T12:32:27;100107.75;;;3.78;100.00
43770;BME280;6597;52.218;9.882;2023-12-20T12:34:54;100113.00;;;3.74;100.00
43770;BME280;6597;52.218;9.882;2023-12-20T12:37:22;100101.81;;;3.71;100.00
43770;BME280;6597;52.218;9.882;2023-12-20T12:39:49;100087.97;;;3.72;100.00
43770;BME280;6597;52.218;9.882;2023-12-20T12:42:16;100098.28;;;3.75;100.00
43770;BME280;6597;52.218;9.882;2023-12-20T12:44:42;100093.94;;;3.77;100.00
43770;BME280;6597;52.218;9.882;2023-12-20T12:47:09;100104.25;;;3.80;100.00
43770;BME280;6597;52.218;9.882;2023-12-20T12:49:35;100087.72;;;3.84;100.00
43770;BME280;6597;52.218;9.882;2023-12-20T12:52:02;100095.44;;;3.89;100.00
43770;BME280;6597;52.218;9.882;2023-12-20T12:54:30;100079.88;;;3.87;100.00
43770;BME280;6597;52.218;9.882;2023-12-20T12:56:56;100082.50;;;3.86;100.00
43770;BME280;6597;52.218;9.882;2023-12-20T12:59:23;100077.34;;;3.84;100.00